Terminal Aerodrome Forecast
Issued by NWS

Home | Current Version | Previous Version | Text Only | Print | Product List | Glossary On
Versions: 1 2 3 4 5 6 7 8 9 10 11 12 13 14 15 16 17 18
000
FTUS45 KRIW 281700
TAFCOD
TAF
KCOD 281720Z 2818/2918 24012G20KT P6SM VCSH SCT090
     FM281930 27022G34KT P6SM FEW110
     FM290200 29010KT P6SM SKC
     FM290800 24007KT P6SM SKC
     FM291600 16011KT P6SM SKC
      AMD LTD TO CLD VIS AND WIND=

USA.gov is the U.S. government's official web portal to all federal, state and local government web resources and services.